Sugar Bowl, California Weather observations

Data are for observation ending at time listed.
 Day   Time    Ave.   Ave.  Ave.  Vector   Max.   Stn.    Total    Solar   Ave.   Snow 
  of    of     Air    Rel.  Wind   Wind    Wind   Baro.  Precip.   Rad.    Soil   Depth
Year   Day     Temp.  Hum.  Speed  Dir.    Gust   Pres.                    Temp.       
2014   (PST)    F      %     mph   deg.    mph     mb.     in.     W/m2     F      in. 
---------------------------------------------------------------------------------------  
 206    0:50   51.8    59    0.4   187      3.4   790.5    0.00       0    999.0    6.0
 206    1:00   51.3    60    0.6   199      3.8   790.5    0.00       0    999.0    6.3
 206    1:10   51.0    60    0.1   208      1.6   790.4    0.00       0    999.0    7.3
 206    1:20   50.7    61    0.2   190      2.6   790.5    0.00       0    999.0    8.2
 206    1:30   50.8    60    0.4   219      1.8   790.4    0.00       0    999.0    9.0
 206    1:40   50.7    60    0.4   171      3.2   790.4    0.00       0    999.0    8.8
 206    1:50   50.6    60    0.4   174      2.6   790.3    0.00       0    999.0    7.5
 206    2:00   50.8    59    0.3   179      2.6   790.4    0.00       0    999.0    9.2
 206    2:10   50.7    60    0.0   106      0.3   790.3    0.00       0    999.0    8.8
 206    2:20   50.2    61    0.3   166      2.4   790.2    0.00       0    999.0    8.3
 206    2:30   50.3    61    0.3   199      2.8   790.1    0.00       0    999.0    6.2
 206    2:40   50.4    61    0.2   280      2.4   790.1    0.00       0    999.0    4.7
 206    2:50   50.0    62    0.4   186      4.1   790.1    0.00       0    999.0    6.5
 206    3:00   49.9    62    0.1   231      1.0   790.0    0.00       0    999.0    5.4
 206    3:10   50.1    62    0.2   279      2.2   790.0    0.00       0    999.0    6.4
 206    3:20   49.8    63    0.5   177      3.7   790.0    0.00       0    999.0    5.8
 206    3:30   49.6    63    0.8   199      3.7   790.0    0.00       0    999.0    6.0
 206    3:40   49.2    64    0.3   175      1.5   790.0    0.00       0    999.0    7.1
 206    3:50   48.9    65    0.4   177      3.7   790.0    0.00       0    999.0    6.8
 206    4:00   49.3    64    0.2   177      2.7   790.0    0.00       0    999.0    6.3
 206    4:10   49.7    64    0.4   251      3.0   790.0    0.00       0    999.0    6.1
 206    4:20   49.4    65    0.7   180      3.9   790.0    0.00       0    999.0    5.9
 206    4:30   49.5    64    0.4   207      3.5   790.0    0.00       0    999.0    5.1
 206    4:40   49.6    64    0.2   204      1.8   790.0    0.00       0    999.0    5.1
 206    4:50   49.4    66    0.3   278      3.0   790.2    0.00       1    999.0    5.3
 206    5:00   49.0    67    0.9   132      4.8   790.2    0.00       3    999.0    5.4
 206    5:10   48.9    68    0.4   156      2.0   790.2    0.00       4    999.0    4.9
 206    5:20   48.9    68    0.6   225      2.7   790.3    0.00       5    999.0    5.1
 206    5:30   48.8    69    0.4   144      1.9   790.3    0.00       7    999.0    5.0
 206    5:40   48.6    70    0.5   151      3.1   790.3    0.00      32    999.0    4.1
 206    5:50   48.9    70    0.5    69      2.2   790.3    0.00     142    999.0    5.1
 206    6:00   50.6    69    0.4    98      1.7   790.4    0.00     174    999.0    5.2
 206    6:10   53.8    64    0.8    89      5.5   790.5    0.00     208    999.0    4.1
 206    6:20   54.4    62    1.7    82      4.5   790.6    0.00     243    999.0    4.0
 206    6:30   57.4    60    0.5    82      2.3   790.5    0.00     280    999.0    3.9
 206    6:40   59.8    54    0.3   182      2.0   790.4    0.00     317    999.0    4.1
 206    6:50   60.7    57    0.7    96      5.3   790.4    0.00     355    999.0    3.6
 206    7:00   61.3    54    1.4   297      5.1   790.5    0.00     391    999.0    4.1
 206    7:10   62.1    50    0.7   123      3.3   790.6    0.00     426    999.0    6.9
 206    7:20   63.7    44    0.8   338      3.9   790.6    0.00     462    999.0    5.5
 206    7:30   64.2    44    1.0    15      3.9   790.5    0.00     499    999.0    3.0
 206    7:40   64.6    40    1.0     2      3.8   790.5    0.00     536    999.0    6.1
 206    7:50   65.2    41    1.2    38      7.0   790.6    0.00     571    999.0    3.8
 206    8:00   65.3    38    2.1   322      7.7   790.6    0.00     605    999.0    4.4
 206    8:10   64.3    39    4.0   311     17.7   790.7    0.00     637    999.0    4.4
 206    8:20   64.1    39    4.3   327     14.4   790.6    0.00     662    999.0    3.3
 206    8:30   64.9    37    2.2   326     13.7   790.7    0.00     437    999.0    4.0
 206    8:40   65.4    38    1.8     1      8.3   790.7    0.00      82    999.0    3.8
 206    8:50   66.6    35    1.6    56      8.9   790.7    0.00     353    999.0    4.4
 206    9:00   66.3    35    3.0   324     10.8   790.7    0.00      98    999.0    4.0
 206    9:10   66.5    35    1.9   299      7.6   790.7    0.00     103    999.0    4.9
 206    9:20   66.2    34    2.9   310     16.3   790.7    0.00      50    999.0    4.8
 206    9:30   66.5    34    2.0   305      7.8   790.8    0.00      51    999.0    3.7
 206    9:40   66.7    34    2.5    16      9.1   790.8    0.00      55    999.0    3.7
 206    9:50   66.9    33    3.3   269     13.4   790.9    0.00      58    999.0    5.3
 206   10:00   67.1    32    2.9   311     11.8   790.9    0.00      53    999.0    3.2
 206   10:10   67.1    32    3.5   210     17.7   791.0    0.00      52    999.0    6.3
 206   10:20   67.0    35    2.0   158      9.3   790.9    0.00      53    999.0    3.1
 206   10:30   68.0    33    2.7   191     16.0   791.0    0.00      55    999.0    3.5
 206   10:40   68.2    33    2.2   276     11.8   791.0    0.00      70    999.0    3.3
 206   10:50   68.7    33    2.2   110      9.4   791.0    0.00      61    999.0    3.9
 206   11:00   68.8    31    3.5   308     15.2   791.1    0.00     126    999.0    6.2
 206   11:10   68.9    31    3.2    20     12.1   791.1    0.00     668    999.0    5.8
 206   11:20   69.0    31    3.2   340     11.9   791.1    0.00    1037    999.0    7.0
 206   11:30   70.0    28    3.0   310     14.8   791.1    0.00    1043    999.0    6.9
 206   11:40   69.6    28    3.2   309     14.1   791.1    0.00    1050    999.0    4.9
 206   11:50   69.4    28    4.5   295     17.3   791.1    0.00    1055    999.0    6.2
 206   12:00   69.9    28    2.8   296     16.0   791.1    0.00    1056    999.0    5.3
 206   12:10   70.7    27    2.9   314     12.5   791.1    0.00     977    999.0    5.4
 206   12:20   70.8    27    3.8   299     21.0   791.2    0.00     458    999.0    6.2
 206   12:30   70.1    27    3.3   311     14.0   791.2    0.00      70    999.0    4.9
 206   12:40   71.5    26    3.4   309     10.0   791.1    0.00      61    999.0    5.9
 206   12:50   71.1    25    4.2   308     14.6   791.2    0.00      56    999.0    4.9
 206   13:00   71.7    26    2.8   312     10.6   791.2    0.00      56    999.0    5.5
 206   13:10   71.5    24    3.3   318      9.3   791.1    0.00      57    999.0    7.8
 206   13:20   71.8    24    3.9   305     19.9   791.1    0.00      60    999.0    5.0
 206   13:30   71.3    22    3.8   294     12.6   791.1    0.00      64    999.0    6.9
 206   13:40   71.7    22    3.3   313     13.6   791.1    0.00      94    999.0    5.8
 206   13:50   72.4    22    3.7   306     17.8   791.1    0.00     105    999.0    6.9
 206   14:00   72.2    22    3.8   320     15.0   791.1    0.00     839    999.0    7.2
 206   14:10   72.5    22    3.5   334     10.6   791.0    0.00     950    999.0    6.4
 206   14:20   73.0    22    3.8   317     16.5   791.0    0.00     932    999.0    7.2
 206   14:30   72.4    20    4.1   319     15.9   791.0    0.00     912    999.0    8.4
 206   14:40   72.3    21    4.5   328     24.7   790.9    0.00     890    999.0    6.2
 206   14:50   71.9    21    5.0   264     25.5   790.9    0.00     866    999.0    7.1
 206   15:00   71.8    22    3.9   302     13.0   790.8    0.00     756    999.0    5.5
 206   15:10   72.4    23    2.6   295     14.7   790.8    0.00     776    999.0    4.5
 206   15:20   72.1    23    4.7   294     21.4   790.8    0.00     589    999.0    6.2
 206   15:30   72.0    22    4.6   300     13.9   790.8    0.00     111    999.0    6.0
 206   15:40   71.9    23    4.7   307     19.6   790.9    0.00      77    999.0    4.8
 206   15:50   71.7    24    3.6   288     15.3   790.9    0.00     141    999.0    7.7
 206   16:00   71.9    24    3.4   320     10.9   790.8    0.00     213    999.0    6.8
 206   16:10   71.7    24    3.8   299     14.4   790.8    0.00     308    999.0    5.7
 206   16:20   72.0    24    3.8   305     13.8   790.8    0.00     126    999.0    6.5
 206   16:30   71.5    23    3.9   290     17.8   790.8    0.00      60    999.0    6.0
 206   16:40   72.0    24    2.5   321      7.6   790.7    0.00      65    999.0    5.3
 206   16:50   71.6    25    3.9   331     11.9   790.6    0.00     253    999.0    5.2
 206   17:00   71.7    25    3.1   272     13.6   790.6    0.00     356    999.0    5.0
 206   17:10   71.9    24    3.6   308     16.4   790.6    0.00     320    999.0    4.8
 206   17:20   71.3    25    2.9   312     14.2   790.6    0.00      58    999.0    5.3
 206   17:30   71.4    25    3.0   293      9.6   790.7    0.00      48    999.0    5.4
 206   17:40   70.7    25    3.1   306     18.4   790.8    0.00     136    999.0    7.2
 206   17:50   70.3    26    2.7   293     13.6   790.9    0.00     217    999.0    7.5
 206   18:00   70.0    26    2.6   271     11.8   790.9    0.00     183    999.0    7.6
 206   18:10   68.8    27    2.4   287     11.7   790.9    0.00     123    999.0    8.3
 206   18:20   67.6    28    2.3   283      9.4   791.0    0.00      35    999.0    9.0
 206   18:30   66.9    28    1.8   268     10.8   791.1    0.00      24    999.0    6.3
 206   18:40   66.3    29    1.8   260     13.8   791.2    0.00      17    999.0    5.8
 206   18:50   65.8    30    1.3   268      6.5   791.3    0.00      12    999.0    6.4
 206   19:00   65.0    31    1.1   251      3.7   791.3    0.00       9    999.0    5.5
 206   19:10   63.8    33    0.4   253      2.6   791.4    0.00       5    999.0    6.2
 206   19:20   62.3    34    0.4   226      2.7   791.4    0.00       3    999.0    6.5
 206   19:30   61.6    35    0.8   224      4.2   791.5    0.00       2    999.0    6.6
 206   19:40   61.3    34    0.8   239      3.2   791.6    0.00       0    999.0    6.6
 206   19:50   60.6    37    0.3   228      2.1   791.7    0.00       0    999.0    4.3
 206   20:00   59.5    39    0.2   227      2.6   791.8    0.00       0    999.0    6.2
 206   20:10   58.0    42    0.5   179      4.3   792.0    0.00       0    999.0    6.1
 206   20:20   56.8    44    0.5   184      3.3   792.1    0.00       0    999.0    7.3
 206   20:30   56.4    45    0.1   173      1.8   792.2    0.00       0    999.0    7.3
 206   20:40   56.2    45    0.2   207      1.9   792.3    0.00       0    999.0    8.3
 206   20:50   55.6    47    0.5   176      3.3   792.4    0.00       0    999.0    7.8
 206   21:00   55.0    48    1.5   189      5.8   792.4    0.00       0    999.0    5.7
 206   21:10   54.6    48    0.9   193      4.6   792.4    0.00       0    999.0    3.5
 206   21:20   54.2    49    0.5   194      4.9   792.4    0.00       0    999.0    3.2
 206   21:30   53.8    50    0.1   177      1.7   792.4    0.00       0    999.0    1.9
 206   21:40   53.2    51    0.1   194      1.4   792.4    0.00       0    999.0    6.7
 206   21:50   52.9    51    0.4   192      2.3   792.4    0.00       0    999.0    6.7
 206   22:00   53.0    51    0.0   196      0.8   792.4    0.00       0    999.0    4.2
 206   22:10   52.5    52    0.1   184      1.9   792.4    0.00       0    999.0    5.8
 206   22:20   52.0    53    0.1   189      1.2   792.4    0.00       0    999.0    6.7
 206   22:30   51.6    53    0.0     0      0.0   792.5    0.00       0    999.0    3.5
 206   22:40   51.1    54    0.0     0      0.0   792.5    0.00       0    999.0    3.7
 206   22:50   51.2    54    0.1   186      1.2   792.5    0.00       0    999.0    2.5
 206   23:00   51.4    53    0.1   218      1.0   792.5    0.00       0    999.0    2.9
 206   23:10   51.1    54    0.0   187      0.9   792.6    0.00       0    999.0    3.2
 206   23:20   51.0    54    0.0   190      1.3   792.5    0.00       0    999.0    3.8
 206   23:30   51.0    54    0.3   178      2.0   792.5    0.00       0    999.0    4.1
 206   23:40   50.7    55    0.2   194      1.2   792.5    0.00       0    999.0    3.4
 206   23:50   50.8    54    0.1   188      1.6   792.5    0.00       0    999.0    5.3
 207    0:00   50.6    54    0.3   187      2.0   792.5    0.00       0    999.0    7.1
 207    0:10   50.4    55    0.3   188      2.5   792.5    0.00       0    999.0    8.3
 207    0:20   50.0    56    0.2   190      1.5   792.4    0.00       0    999.0    9.2
 207    0:30   49.7    57    0.3   188      3.2   792.4    0.00       0    999.0    8.4
 207    0:40   49.5    57    0.1   197      1.6   792.4    0.00       0    999.0    6.4

Return to Sugar Bowl graphs page.


Western Regional Climate Center,wrcc@dri.edu